createdAt,value
2019-04-22T00:00:10.749Z,27.13
2019-04-22T00:03:18.975Z,25.93
2019-04-22T00:06:48.310Z,30.47
2019-04-22T00:09:52.364Z,27.63
2019-04-22T00:12:59.828Z,25.40
2019-04-22T00:16:01.083Z,28.83
2019-04-22T00:19:15.273Z,23.03
2019-04-22T00:22:16.122Z,24.97
2019-04-22T00:25:19.779Z,21.93
2019-04-22T00:28:24.952Z,31.97
2019-04-22T00:31:36.691Z,27.50
2019-04-22T00:34:44.071Z,29.67
2019-04-22T00:37:54.446Z,25.87
2019-04-22T00:41:13.163Z,30.27
2019-04-22T00:44:02.618Z,23.47
2019-04-22T00:47:07.421Z,29.23
2019-04-22T00:50:22.410Z,24.93
2019-04-22T00:53:24.905Z,22.93
2019-04-22T00:56:22.012Z,23.13
2019-04-22T00:59:23.776Z,25.90
2019-04-22T01:02:37.019Z,28.13
2019-04-22T01:05:42.297Z,22.40
2019-04-22T01:08:51.267Z,24.33
2019-04-22T01:11:44.945Z,24.93
2019-04-22T01:14:47.508Z,22.97
2019-04-22T01:17:59.144Z,25.70
2019-04-22T01:24:05.828Z,30.63
2019-04-22T01:27:08.079Z,24.17
2019-04-22T01:30:10.908Z,23.87
2019-04-22T01:33:10.690Z,23.40
2019-04-22T01:36:28.826Z,24.10
2019-04-22T01:39:40.291Z,32.10
2019-04-22T01:42:50.335Z,30.30
2019-04-22T01:45:49.685Z,25.93
2019-04-22T01:48:55.393Z,23.10
2019-04-22T01:55:12.269Z,25.07
2019-04-22T01:58:05.647Z,22.83
2019-04-22T02:01:13.522Z,22.60
2019-04-22T02:04:26.646Z,24.60
2019-04-22T02:07:25.405Z,25.27
2019-04-22T02:10:34.799Z,28.63
2019-04-22T02:13:35.349Z,27.77
2019-04-22T02:16:41.642Z,24.07
2019-04-22T02:19:53.129Z,26.80
2019-04-22T02:26:25.545Z,27.90
2019-04-22T02:29:32.617Z,25.47
2019-04-22T02:32:48.611Z,42.33
2019-04-22T02:35:58.096Z,24.00
2019-04-22T02:38:58.950Z,27.17
2019-04-22T02:41:55.019Z,31.93
2019-04-22T02:44:53.603Z,26.53
2019-04-22T02:48:10.356Z,21.50
2019-04-22T02:51:22.248Z,18.23
2019-04-22T02:54:31.575Z,25.07
2019-04-22T03:00:35.442Z,25.90
2019-04-22T03:03:41.757Z,22.10
2019-04-22T03:09:55.120Z,28.07
2019-04-22T03:12:48.976Z,25.83
2019-04-22T03:15:59.585Z,27.23
2019-04-22T03:22:00.495Z,26.20
2019-04-22T03:25:32.359Z,24.73
2019-04-22T03:28:10.240Z,17.70
2019-04-22T03:32:17.477Z,22.90
2019-04-22T03:37:55.779Z,25.07
2019-04-22T03:41:13.466Z,26.07
2019-04-22T03:44:25.007Z,27.73
2019-04-22T03:47:27.954Z,22.60
2019-04-22T03:50:27.942Z,17.73
2019-04-22T03:53:38.502Z,24.10
2019-04-22T03:57:07.195Z,35.63
2019-04-22T03:59:41.402Z,26.70
2019-04-22T04:05:57.864Z,18.30
2019-04-22T04:08:53.289Z,22.07
2019-04-22T04:11:59.897Z,20.67
2019-04-22T04:30:30.001Z,20.67
2019-04-22T04:36:42.200Z,23.47
2019-04-22T04:40:21.377Z,14.43
2019-04-22T04:52:14.543Z,25.77
2019-04-22T04:55:18.479Z,17.70
2019-04-22T04:58:34.470Z,24.00
2019-04-22T05:07:36.139Z,17.30
2019-04-22T05:19:47.402Z,17.23
2019-04-22T05:25:57.337Z,31.67
2019-04-22T05:29:05.496Z,16.73
2019-04-22T05:32:01.577Z,17.93
2019-04-22T05:38:17.188Z,23.10
2019-04-22T05:41:27.240Z,19.37
2019-04-22T05:44:26.176Z,16.97
2019-04-22T05:47:26.065Z,17.00
2019-04-22T05:50:26.978Z,22.10
2019-04-22T05:53:43.467Z,26.70
2019-04-22T05:56:43.047Z,30.57
2019-04-22T05:59:52.897Z,33.07
2019-04-22T06:02:58.053Z,33.13
2019-04-22T06:06:05.513Z,35.73
2019-04-22T06:09:07.457Z,37.03
2019-04-22T06:12:09.847Z,35.27
2019-04-22T06:15:18.990Z,30.87
2019-04-22T06:18:31.498Z,31.00
2019-04-22T06:21:35.656Z,34.93
2019-04-22T06:24:38.876Z,22.93
2019-04-22T06:27:41.426Z,16.77
2019-04-22T06:30:49.239Z,19.63
2019-04-22T06:33:56.500Z,22.53
2019-04-22T06:37:01.893Z,13.60
2019-04-22T06:39:58.848Z,16.80
2019-04-22T06:43:11.890Z,18.93
2019-04-22T06:46:18.716Z,18.60
2019-04-22T06:49:20.758Z,16.47
2019-04-22T06:52:17.777Z,15.60
2019-04-22T06:55:33.328Z,18.93
2019-04-22T06:58:28.900Z,16.90
2019-04-22T07:01:42.503Z,18.83
2019-04-22T07:04:44.607Z,20.10
2019-04-22T07:07:45.546Z,17.30
2019-04-22T07:14:13.331Z,16.17
2019-04-22T07:17:04.058Z,22.47
2019-04-22T07:20:04.345Z,15.53
2019-04-22T07:23:15.471Z,11.77
2019-04-22T07:26:18.962Z,14.40
2019-04-22T07:29:23.632Z,11.33
2019-04-22T07:32:47.783Z,10.10
2019-04-22T07:35:36.545Z,20.43
2019-04-22T07:38:32.794Z,7.33
2019-04-22T07:47:58.916Z,13.23
2019-04-22T07:54:03.053Z,5.60
2019-04-22T07:57:15.341Z,5.73
2019-04-22T08:00:16.098Z,11.13
2019-04-22T08:03:22.790Z,8.50
2019-04-22T08:06:26.493Z,11.53
2019-04-22T08:09:33.994Z,4.90
2019-04-22T08:15:47.100Z,5.23
2019-04-22T08:18:47.344Z,8.83
2019-04-22T08:21:52.191Z,9.70
2019-04-22T08:25:13.645Z,6.93
2019-04-22T08:28:03.288Z,5.97
2019-04-22T08:31:11.930Z,5.90
2019-04-22T08:34:13.674Z,8.17
2019-04-22T08:37:41.462Z,5.67
2019-04-22T08:40:34.067Z,7.97
2019-04-22T08:43:36.375Z,21.20
2019-04-22T08:46:52.139Z,12.00
2019-04-22T08:49:42.453Z,6.40
2019-04-22T08:52:48.345Z,4.63
2019-04-22T08:55:58.208Z,7.70
2019-04-22T08:59:06.946Z,6.03
2019-04-22T09:02:02.798Z,11.87
2019-04-22T09:05:19.840Z,7.47
2019-04-22T09:08:14.237Z,5.77
2019-04-22T09:11:20.364Z,4.70
2019-04-22T09:14:24.280Z,4.90
2019-04-22T09:17:40.078Z,5.97
2019-04-22T09:20:36.423Z,3.80
2019-04-22T09:23:42.098Z,6.20
2019-04-22T09:26:42.039Z,4.07
2019-04-22T09:29:50.356Z,5.50
2019-04-22T09:32:56.009Z,5.27
2019-04-22T09:36:01.773Z,6.07
2019-04-22T09:39:12.703Z,7.40
2019-04-22T09:42:05.804Z,6.10
2019-04-22T09:45:22.909Z,8.80
2019-04-22T09:48:16.834Z,8.90
2019-04-22T09:51:18.998Z,5.60
2019-04-22T09:54:34.434Z,3.10
2019-04-22T09:57:24.621Z,8.40
2019-04-22T10:00:42.916Z,4.97
2019-04-22T10:03:45.344Z,6.97
2019-04-22T10:06:40.375Z,12.10
2019-04-22T10:10:03.334Z,6.83
2019-04-22T10:12:57.502Z,5.87
2019-04-22T10:16:03.105Z,6.73
2019-04-22T10:22:19.331Z,5.33
2019-04-22T10:25:16.797Z,3.67
2019-04-22T10:28:27.337Z,19.90
2019-04-22T10:31:32.894Z,4.63
2019-04-22T10:34:20.346Z,4.73
2019-04-22T10:37:17.046Z,10.13
2019-04-22T10:40:32.395Z,3.10
2019-04-22T10:43:36.979Z,5.67
2019-04-22T10:46:40.310Z,5.20
2019-04-22T10:49:46.546Z,4.63
2019-04-22T10:52:49.944Z,7.70
2019-04-22T10:55:54.222Z,4.03
2019-04-22T10:58:58.400Z,6.17
2019-04-22T11:02:01.489Z,5.37
2019-04-22T11:05:08.127Z,5.60
2019-04-22T11:08:20.396Z,5.73
2019-04-22T11:11:31.524Z,5.77
2019-04-22T11:14:23.255Z,8.10
2019-04-22T11:17:26.986Z,3.00
2019-04-22T11:20:31.141Z,5.47
2019-04-22T11:23:34.490Z,4.30
2019-04-22T11:26:38.754Z,4.20
2019-04-22T11:29:43.469Z,8.10
2019-04-22T11:32:48.626Z,5.30
2019-04-22T11:35:52.099Z,5.23
2019-04-22T11:39:00.150Z,4.20
2019-04-22T11:42:00.589Z,8.83
2019-04-22T11:45:05.560Z,3.57
2019-04-22T11:48:09.158Z,4.53
2019-04-22T11:51:13.835Z,5.20
2019-04-22T11:54:17.138Z,3.00
2019-04-22T11:57:21.163Z,3.10
2019-04-22T12:00:30.754Z,3.80
2019-04-22T12:03:33.905Z,3.67
2019-04-22T12:06:37.850Z,5.30
2019-04-22T12:09:43.593Z,5.25
2019-04-22T12:12:48.247Z,5.43
2019-04-22T12:15:51.442Z,3.57
2019-04-22T12:18:55.459Z,3.67
2019-04-22T12:22:00.687Z,21.53
2019-04-22T12:25:06.532Z,4.17
2019-04-22T12:28:11.033Z,4.67
2019-04-22T12:31:15.507Z,5.90
2019-04-22T12:34:19.645Z,2.93
2019-04-22T12:37:34.278Z,4.20
2019-04-22T12:40:39.457Z,6.53
2019-04-22T12:43:33.707Z,5.10
2019-04-22T12:46:36.702Z,5.60
2019-04-22T12:49:42.333Z,9.57
2019-04-22T12:52:52.711Z,6.47
2019-04-22T12:55:50.293Z,5.40
2019-04-22T12:58:53.964Z,4.37
2019-04-22T13:01:58.537Z,4.83
2019-04-22T13:05:01.611Z,3.13
2019-04-22T13:08:05.663Z,4.23
2019-04-22T13:11:12.950Z,4.60
2019-04-22T13:14:14.985Z,5.20
2019-04-22T13:17:18.972Z,14.63
2019-04-22T13:20:22.166Z,6.30
2019-04-22T13:23:25.542Z,2.87
2019-04-22T13:26:29.757Z,7.00
2019-04-22T13:29:33.077Z,3.27
2019-04-22T13:32:36.785Z,6.07
2019-04-22T13:35:41.489Z,4.97
2019-04-22T13:38:45.094Z,4.20
2019-04-22T13:41:53.835Z,6.07
2019-04-22T13:44:53.546Z,3.07
2019-04-22T13:48:16.796Z,1.93
2019-04-22T13:57:32.811Z,4.07
2019-04-22T14:00:22.546Z,3.03
2019-04-22T14:03:48.870Z,2.50
2019-04-22T14:06:52.585Z,4.20
2019-04-22T14:09:56.075Z,4.07
2019-04-22T14:13:01.619Z,3.17
2019-04-22T14:16:04.859Z,4.33
2019-04-22T14:19:08.086Z,2.70
2019-04-22T14:22:11.763Z,3.07
2019-04-22T14:25:16.612Z,2.00
2019-04-22T14:28:22.970Z,8.13
2019-04-22T14:31:24.775Z,4.00
2019-04-22T14:34:29.988Z,1.93
2019-04-22T14:37:34.208Z,1.77
2019-04-22T14:40:38.646Z,25.60
2019-04-22T14:44:49.452Z,2.20
2019-04-22T14:47:14.202Z,1.50
2019-04-22T14:50:16.066Z,3.80
2019-04-22T14:53:19.546Z,10.90
2019-04-22T14:56:02.325Z,5.20
2019-04-22T14:59:06.882Z,1.77
2019-04-22T15:02:10.184Z,25.13
2019-04-22T15:05:14.397Z,4.50
2019-04-22T15:08:17.425Z,7.27
2019-04-22T15:11:21.272Z,4.10
2019-04-22T15:14:25.734Z,4.40
2019-04-22T15:17:36.702Z,7.03
2019-04-22T15:20:50.282Z,10.13
2019-04-22T15:23:52.863Z,2.40
2019-04-22T15:26:58.590Z,3.50
2019-04-22T15:30:03.405Z,2.53
2019-04-22T15:33:07.494Z,3.33
2019-04-22T15:36:11.973Z,3.53
2019-04-22T15:39:15.643Z,2.17
2019-04-22T15:42:27.623Z,2.47
2019-04-22T15:45:25.759Z,2.63
2019-04-22T15:48:32.229Z,1.30
2019-04-22T15:51:34.432Z,1.63
2019-04-22T15:54:37.753Z,2.33
2019-04-22T15:57:41.995Z,7.33
2019-04-22T16:00:57.663Z,2.03
2019-04-22T16:03:52.445Z,2.30
2019-04-22T16:06:57.060Z,2.10
2019-04-22T16:10:01.422Z,3.37
2019-04-22T16:13:12.539Z,2.37
2019-04-22T16:16:10.394Z,3.30
2019-04-22T16:19:14.112Z,1.43
2019-04-22T16:22:19.712Z,1.57
2019-04-22T16:25:45.366Z,2.00
2019-04-22T16:28:52.748Z,2.57
2019-04-22T16:31:55.611Z,3.07
2019-04-22T16:34:58.986Z,1.60
2019-04-22T16:38:01.956Z,2.33
2019-04-22T16:41:06.639Z,2.03
2019-04-22T16:44:12.361Z,3.27
2019-04-22T16:47:15.689Z,1.90
2019-04-22T16:50:18.784Z,1.60
2019-04-22T16:53:23.167Z,1.50
2019-04-22T16:56:26.847Z,2.13
2019-04-22T16:59:30.758Z,2.97
2019-04-22T17:02:54.559Z,4.10
2019-04-22T17:06:27.659Z,2.50
2019-04-22T17:09:31.940Z,7.13
2019-04-22T17:12:44.309Z,2.00
2019-04-22T17:15:41.500Z,8.23
2019-04-22T17:18:45.528Z,2.53
2019-04-22T17:21:50.053Z,2.67
2019-04-22T17:24:54.075Z,4.77
2019-04-22T17:27:57.498Z,4.77
2019-04-22T17:31:01.796Z,5.50
2019-04-22T17:34:06.915Z,2.80
2019-04-22T17:37:14.275Z,6.07
2019-04-22T17:40:33.093Z,3.57
2019-04-22T17:43:59.219Z,12.80
2019-04-22T17:47:10.580Z,2.03
2019-04-22T17:50:19.956Z,7.63
2019-04-22T17:53:33.456Z,3.90
2019-04-22T17:56:37.814Z,8.70
2019-04-22T17:59:38.100Z,7.00
2019-04-22T18:02:39.669Z,5.30
2019-04-22T18:05:34.758Z,5.30
2019-04-22T18:08:51.876Z,2.33
2019-04-22T18:12:04.889Z,9.43
2019-04-22T18:15:07.265Z,2.93
2019-04-22T18:18:15.494Z,1.70
2019-04-22T18:21:08.897Z,3.57
2019-04-22T18:24:07.969Z,13.13
2019-04-22T18:27:34.714Z,2.47
2019-04-22T18:30:20.400Z,2.90
2019-04-22T18:33:35.734Z,2.07
2019-04-22T18:36:33.303Z,5.10
2019-04-22T18:39:49.273Z,2.60
2019-04-22T18:42:52.580Z,2.20
2019-04-22T18:46:03.660Z,3.43
2019-04-22T18:48:55.693Z,1.47
2019-04-22T18:52:18.412Z,2.57
2019-04-22T18:55:28.412Z,2.60
2019-04-22T18:58:33.687Z,1.97
2019-04-22T19:01:21.880Z,2.80
2019-04-22T19:04:31.583Z,3.17
2019-04-22T19:08:00.684Z,2.10
2019-04-22T19:11:03.196Z,1.93
2019-04-22T19:14:07.494Z,2.60
2019-04-22T19:17:21.567Z,2.53
2019-04-22T19:20:15.248Z,4.73
2019-04-22T19:23:24.197Z,7.60
2019-04-22T19:26:30.363Z,5.70
2019-04-22T19:29:31.638Z,1.37
2019-04-22T19:32:31.055Z,2.07
2019-04-22T19:35:35.151Z,10.43
2019-04-22T19:38:31.149Z,2.57
2019-04-22T19:41:52.014Z,1.60
2019-04-22T19:44:55.099Z,9.93
2019-04-22T19:48:03.852Z,1.57
2019-04-22T19:51:12.847Z,2.53
2019-04-22T19:54:09.388Z,2.50
2019-04-22T19:57:11.639Z,2.93
2019-04-22T20:00:38.805Z,3.30
2019-04-22T20:04:23.053Z,5.03
2019-04-22T20:07:15.438Z,2.60
2019-04-22T20:10:25.149Z,1.73
2019-04-22T20:13:37.087Z,4.60
2019-04-22T20:16:32.520Z,2.20
2019-04-22T20:19:46.261Z,1.83
2019-04-22T20:22:44.807Z,2.00
2019-04-22T20:25:44.950Z,3.37
2019-04-22T20:28:52.778Z,1.93
2019-04-22T20:32:15.895Z,2.80
2019-04-22T20:35:07.982Z,1.90
2019-04-22T20:38:16.853Z,6.20
2019-04-22T20:41:13.360Z,2.00
2019-04-22T20:44:26.066Z,2.47
2019-04-22T20:47:21.696Z,7.40
2019-04-22T20:50:39.471Z,3.70
2019-04-22T20:53:44.055Z,2.10
2019-04-22T20:56:37.253Z,4.27
2019-04-22T20:59:48.377Z,5.50
2019-04-22T21:02:46.437Z,4.50
2019-04-22T21:05:52.551Z,1.47
2019-04-22T21:09:07.546Z,2.37
2019-04-22T21:12:04.987Z,2.40
2019-04-22T21:15:23.846Z,1.50
2019-04-22T21:18:23.985Z,4.30
2019-04-22T21:21:29.587Z,2.40
2019-04-22T21:24:32.745Z,1.20
2019-04-22T21:27:42.477Z,4.60
2019-04-22T21:30:37.553Z,5.67
2019-04-22T21:33:47.297Z,12.93
2019-04-22T21:37:00.898Z,1.37
2019-04-22T21:39:46.595Z,1.30
2019-04-22T21:43:04.615Z,4.70
2019-04-22T21:46:08.897Z,2.40
2019-04-22T21:49:16.617Z,2.03
2019-04-22T21:52:17.061Z,1.63
2019-04-22T21:55:23.835Z,2.30
2019-04-22T21:58:43.661Z,3.10
2019-04-22T22:01:52.927Z,3.23
2019-04-22T22:04:52.694Z,7.90
2019-04-22T22:07:51.083Z,9.77
2019-04-22T22:11:08.169Z,9.93
2019-04-22T22:14:07.635Z,4.17
2019-04-22T22:17:13.966Z,3.83
2019-04-22T22:20:15.922Z,12.20
2019-04-22T22:26:35.316Z,1.70
2019-04-22T22:29:57.175Z,9.20
2019-04-22T22:32:40.232Z,2.17
2019-04-22T22:35:45.732Z,6.37
2019-04-22T22:38:46.945Z,1.97
2019-04-22T22:41:36.688Z,4.53
2019-04-22T22:44:44.911Z,2.33
2019-04-22T22:48:18.975Z,1.30
2019-04-22T22:51:09.926Z,1.60
2019-04-22T22:54:21.655Z,5.23
2019-04-22T22:57:29.314Z,8.00
2019-04-22T23:00:26.043Z,4.00
2019-04-22T23:06:44.451Z,2.70
2019-04-22T23:09:47.136Z,10.67
2019-04-22T23:13:01.580Z,8.77
2019-04-22T23:15:46.686Z,1.27
2019-04-22T23:18:57.595Z,1.43
2019-04-22T23:22:06.328Z,0.90
2019-04-22T23:25:27.480Z,1.97
2019-04-22T23:28:50.022Z,1.83
2019-04-22T23:31:52.180Z,1.27
2019-04-22T23:35:22.605Z,1.77
2019-04-22T23:38:25.579Z,2.13
2019-04-22T23:41:40.764Z,4.10
2019-04-22T23:44:42.046Z,1.90
2019-04-22T23:47:35.536Z,3.50
2019-04-22T23:50:49.497Z,1.67
2019-04-22T23:56:56.459Z,1.33
